Greenfield, IL (62044)

12:30 AM CDT on September 03, 2015 (GMT -0500)
Rural Macoupin County | | Change Station
CLOSE
Current Station
Personal Weather Station
Location: Carlinville, IL
Elevation: 614 ft
Nearby Weather Stations

Elev 614 ft 39.23 °N, 89.95 °W | Updated 8 minutes ago

Clear
Clear
72.3 °F
Feels Like 72.3 °F
N
0.0
Wind Variable Wind from ESE

Today
High -- | Low -- °F
--% Chance of Precip.
Yesterday
High -- | Low -- °F
Precip. -- in
6:30 AM 7:28 PM
Waning Gibbous, 73% visible
Pressure 29.98 in
Visibility 10.0 miles
Clouds Clear
Dew Point 71 °F
Humidity 95%
Rainfall 0.00 in
Snow Depth Not available.
UV 0 out of 12
Pollen 11.20 out of 12
Air Quality Not available.
Flu Activity Not available.
METAR KIJX 030515Z AUTO 17003KT 10SM CLR 24/20 A2998 RMK AO2 T02440204
Pressure 29.98 in
Visibility 10.0 miles
Clouds Clear
Dew Point 71 °F
Humidity 95%
Rainfall 0.00 in
Snow Depth Not available.
UV 0 out of 12
Pollen 11.20 out of 12
Air Quality Not available.
Flu Activity Not available.
METAR KIJX 030515Z AUTO 17003KT 10SM CLR 24/20 A2998 RMK AO2 T02440204

10-Day Weather Forecast

×

Almanac

Astronomy

Sep. 03, 2015 Rise Set
Actual Time
Civil Twilight
Nautical Twilight
Astronomical Twilight
Moon
Length of Visible Light
Length of Day
Tomorrow will be .
, % of the Moon is Illuminated

Today's Extremes

State Highs State Lows

Community

WunderPhotos

Upload Photos

1,851,914 photos uploaded!

WunderBlogs® & News

Nearby

Air Quality

  Air Quality AQ Index Pollutant
Not available.

Snow Depth

Station Depth Elevation

Earthquake Activity

City Distance Mag. Time & Date
Minimum magnitude displayed is 2.5.

Coastal Water Temperatures

Place Temperature

Stations

Nearby Weather Stations

Station Location Temp. Windchill Dew Point Humidity Wind Precip. Elev Updated Type